EKVJ

Stauning Airport

Skjern / Ringkøbing, Denmark
METAR EKVJ 201350Z 30017KT 9999 FEW040 18/12 Q1016
Observed Flight Rules
Aug-20 @ 13:50 UTC (10 hours ago) Visual Flight Rules
Wind Visibility Clouds
300° at 17 knots 10,000+ meters
  • Few at 4,000' AGL
Temperatures Readings
Current 18°C / 64°F
Dewpoint 12°C / 54°F
Humidity 68%
Altimeter 30" Hg
Pressure 1016 hPa
Elevation 5
METAR EKVJ 201350Z 30017KT 9999 FEW040 18/12 Q1016
Observed Flight Rules
Aug-20 @ 13:50 UTC
(10 hours ago)
VFR
Wind Visibility
300° at 17 knots 10,000+ meters
Clouds
  • Few at 4,000' AGL
Temperature Dewpoint
18°C / 64°F 12°C / 54°F
Humidity Altimeter Pressure
68% 30" Hg 1016 hPa